File list

From Geo Hashing
Jump to: navigation, search

This special page shows all uploaded files.

File list
Items per page:
Search for media name:
Username:

descDate Name Thumbnail Size User Description Versions
07:24, 13 October 20132013-10-13 55 14 13-23-03-588.jpg (file)101 KBCjk [http://www.openstreetmap.org/?lat=55.98880000&lon=14.12910000&zoom=16&layers=B000FTF @55.9888,14.1291] Category:Meetup on 2013-10-13 Category:Meetup in 55 141
07:23, 13 October 20132013-10-13 55 14 13-22-44-130.jpg (file)83 KBCjk [http://www.openstreetmap.org/?lat=55.98880000&lon=14.12910000&zoom=16&layers=B000FTF @55.9888,14.1291] Category:Meetup on 2013-10-13 Category:Meetup in 55 141
17:13, 28 August 20122012-08-28 59 17 23-13-25-340.jpg (file)89 KBCjkOrange Category:Meetup on 2012-08-28 Category:Meetup in 59 171
17:12, 28 August 20122012-08-28 59 17 23-12-28-076.jpg (file)59 KBCjkTotally made it. [http://www.openstreetmap.org/?lat=59.65900000&lon=17.70390000&zoom=16&layers=B000FTF @59.6590,17.7039] Category:Meetup on 2012-08-28 Category:Meetup in 59 171
17:11, 28 August 20122012-08-28 59 17 23-11-28-984.jpg (file)59 KBCjkBlair witch [http://www.openstreetmap.org/?lat=59.65870000&lon=17.70120000&zoom=16&layers=B000FTF @59.6587,17.7012] Category:Meetup on 2012-08-28 Category:Meetup in 59 171
17:10, 28 August 20122012-08-28 59 17 23-10-52-904.jpg (file)85 KBCjkThe reeds and nettles are taller than me! [http://www.openstreetmap.org/?lat=59.65870000&lon=17.70120000&zoom=16&layers=B000FTF @59.6587,17.7012] Category:Meetup on 2012-08-28 Category:Meetup in 59 171
04:08, 25 August 20122012-08-25 58 12 10-07-58-762.jpg (file)92 KBCjkDeja vu [http://www.openstreetmap.org/?lat=58.56040000&lon=12.36130000&zoom=16&layers=B000FTF @58.5604,12.3613] Category:Meetup on 2012-08-25 Category:Meetup in 58 121
04:07, 25 August 20122012-08-25 58 12 10-07-17-010.jpg (file)166 KBCjk [http://www.openstreetmap.org/?lat=58.56040000&lon=12.36130000&zoom=16&layers=B000FTF @58.5604,12.3613] Category:Meetup on 2012-08-25 Category:Meetup in 58 121
04:06, 25 August 20122012-08-25 58 12 10-06-49-431.jpg (file)163 KBCjk [http://www.openstreetmap.org/?lat=58.56040000&lon=12.36130000&zoom=16&layers=B000FTF @58.5604,12.3613] Category:Meetup on 2012-08-25 Category:Meetup in 58 121
04:06, 25 August 20122012-08-25 58 12 10-06-25-958.jpg (file)81 KBCjk [http://www.openstreetmap.org/?lat=58.55970000&lon=12.35970000&zoom=16&layers=B000FTF @58.5597,12.3597] Category:Meetup on 2012-08-25 Category:Meetup in 58 121
15:39, 24 August 20122012-08-24 59 13 21-39-25-941.jpg (file)44 KBCjk [http://www.openstreetmap.org/?lat=59.07460000&lon=13.13150000&zoom=16&layers=B000FTF @59.0746,13.1315] Category:Meetup on 2012-08-24 Category:Meetup in 59 131
15:38, 24 August 20122012-08-24 59 13 21-37-45-949.jpg (file)99 KBCjk [http://www.openstreetmap.org/?lat=59.07430000&lon=13.13360000&zoom=16&layers=B000FTF @59.0743,13.1336] Category:Meetup on 2012-08-24 Category:Meetup in 59 131
15:36, 24 August 20122012-08-24 59 13 21-35-59-521.jpg (file)99 KBCjk [http://www.openstreetmap.org/?lat=59.07430000&lon=13.13450000&zoom=16&layers=B000FTF @59.0743,13.1345] Category:Meetup on 2012-08-24 Category:Meetup in 59 131
15:35, 24 August 20122012-08-24 59 13 21-35-09-694.jpg (file)58 KBCjk [http://www.openstreetmap.org/?lat=59.07430000&lon=13.13480000&zoom=16&layers=B000FTF @59.0743,13.1348] Category:Meetup on 2012-08-24 Category:Meetup in 59 131
15:34, 24 August 20122012-08-24 59 13 21-34-29-253.jpg (file)78 KBCjk [http://www.openstreetmap.org/?lat=59.07430000&lon=13.13480000&zoom=16&layers=B000FTF @59.0743,13.1348] Category:Meetup on 2012-08-24 Category:Meetup in 59 131
15:34, 24 August 20122012-08-24 59 13 21-33-40-122.jpg (file)139 KBCjk [http://www.openstreetmap.org/?lat=59.07430000&lon=13.13470000&zoom=16&layers=B000FTF @59.0743,13.1347] Category:Meetup on 2012-08-24 Category:Meetup in 59 131
15:33, 24 August 20122012-08-24 59 13 21-33-02-931.jpg (file)48 KBCjkTeen Girl Squad [http://www.openstreetmap.org/?lat=59.07430000&lon=13.13470000&zoom=16&layers=B000FTF @59.0743,13.1347] Category:Meetup on 2012-08-24 Category:Meetup in 59 131
15:31, 24 August 20122012-08-24 59 13 21-31-30-407.jpg (file)129 KBCjk [http://www.openstreetmap.org/?lat=59.07670000&lon=13.13140000&zoom=16&layers=B000FTF @59.0767,13.1314] Category:Meetup on 2012-08-24 Category:Meetup in 59 131
15:29, 24 August 20122012-08-24 59 13 21-29-52-152.jpg (file)150 KBCjk [http://www.openstreetmap.org/?lat=59.07770000&lon=13.13190000&zoom=16&layers=B000FTF @59.0777,13.1319] Category:Meetup on 2012-08-24 Category:Meetup in 59 131
15:29, 24 August 20122012-08-24 59 13 21-29-15-305.jpg (file)51 KBCjk [http://www.openstreetmap.org/?lat=59.07810000&lon=13.13160000&zoom=16&layers=B000FTF @59.0781,13.1316] Category:Meetup on 2012-08-24 Category:Meetup in 59 131
15:26, 24 August 20122012-08-24 59 13 21-26-21-000.jpg (file)49 KBCjkMarsh , woods, darkness [http://www.openstreetmap.org/?lat=59.07420000&lon=13.13470000&zoom=16&layers=B000FTF @59.0742,13.1347] Category:Meetup on 2012-08-24 Category:Meetup in 59 131
15:05, 24 August 20122012-08-24 59 13 21-05-42-169.jpg (file)49 KBCjkPaper mill [http://www.openstreetmap.org/?lat=59.34080000&lon=13.10950000&zoom=16&layers=B000FTF @59.3408,13.1095] Category:Meetup on 2012-08-24 Category:Meetup in 59 131
15:04, 24 August 20122012-08-24 59 13 21-04-49-575.jpg (file)48 KBCjkGrums [http://www.openstreetmap.org/?lat=59.34130000&lon=13.10960000&zoom=16&layers=B000FTF @59.3413,13.1096] Category:Meetup on 2012-08-24 Category:Meetup in 59 131
08:55, 19 August 20122012-08-19 59 18 14-55-05-915.jpg (file)30 KBCjkPanorama 2 Category:Meetup on 2012-08-19 Category:Meetup in 59 181
08:54, 19 August 20122012-08-19 59 18 14-54-37-797.jpg (file)30 KBCjkPanorama 1 Category:Meetup on 2012-08-19 Category:Meetup in 59 181
08:54, 19 August 20122012-08-19 59 18 14-54-04-401.jpg (file)88 KBCjkGrin [http://www.openstreetmap.org/?lat=59.26260000&lon=18.03000000&zoom=16&layers=B000FTF @59.2626,18.0300] Category:Meetup on 2012-08-19 Category:Meetup in 59 181
08:53, 19 August 20122012-08-19 59 18 14-53-35-589.jpg (file)143 KBCjkX [http://www.openstreetmap.org/?lat=59.26260000&lon=18.03000000&zoom=16&layers=B000FTF @59.2626,18.0300] Category:Meetup on 2012-08-19 Category:Meetup in 59 181
08:52, 19 August 20122012-08-19 59 18 14-52-46-598.jpg (file)150 KBCjkThat way [http://www.openstreetmap.org/?lat=59.26260000&lon=18.03000000&zoom=16&layers=B000FTF @59.2626,18.0300] Category:Meetup on 2012-08-19 Category:Meetup in 59 181
08:52, 19 August 20122012-08-19 59 18 14-52-11-320.jpg (file)153 KBCjkOrange [http://www.openstreetmap.org/?lat=59.26260000&lon=18.03000000&zoom=16&layers=B000FTF @59.2626,18.0300] Category:Meetup on 2012-08-19 Category:Meetup in 59 181
08:51, 19 August 20122012-08-19 59 18 14-51-26-831.jpg (file)127 KBCjkAnd thick grass [http://www.openstreetmap.org/?lat=59.26260000&lon=18.03010000&zoom=16&layers=B000FTF @59.2626,18.0301] Category:Meetup on 2012-08-19 Category:Meetup in 59 181
08:50, 19 August 20122012-08-19 59 18 14-50-22-098.jpg (file)126 KBCjkThistles [http://www.openstreetmap.org/?lat=59.26260000&lon=18.03010000&zoom=16&layers=B000FTF @59.2626,18.0301] Category:Meetup on 2012-08-19 Category:Meetup in 59 181
08:49, 19 August 20122012-08-19 59 18 14-49-33-968.jpg (file)129 KBCjkStinging nettles [http://www.openstreetmap.org/?lat=59.26260000&lon=18.03010000&zoom=16&layers=B000FTF @59.2626,18.0301] Category:Meetup on 2012-08-19 Category:Meetup in 59 181
08:48, 19 August 20122012-08-19 59 18 14-48-41-919.jpg (file)78 KBCjkSpeed raced here [http://www.openstreetmap.org/?lat=59.26240000&lon=18.03060000&zoom=16&layers=B000FTF @59.2624,18.0306] Category:Meetup on 2012-08-19 Category:Meetup in 59 181
18:36, 27 July 20122012-07-27 59 12 00-36-39-385.jpg (file)115 KBCjkAnd there's my car [http://www.openstreetmap.org/?lat=59.29480000&lon=12.63410000&zoom=16&layers=B000FTF @59.2948,12.6341] Category:Meetup on 2012-07-27 Category:Meetup in 59 121
18:36, 27 July 20122012-07-27 59 12 00-36-09-909.jpg (file)127 KBCjkThis is the way I should have taken to keep my feet dry [http://www.openstreetmap.org/?lat=59.29450000&lon=12.63440000&zoom=16&layers=B000FTF @59.2945,12.6344] Category:Meetup on 2012-07-27 Category:Meetup in 59 121
18:35, 27 July 20122012-07-27 59 12 00-35-09-524.jpg (file)69 KBCjkGetting closer to the car [http://www.openstreetmap.org/?lat=59.29370000&lon=12.63380000&zoom=16&layers=B000FTF @59.2937,12.6338] Category:Meetup on 2012-07-27 Category:Meetup in 59 121
18:34, 27 July 20122012-07-27 59 12 00-34-22-828.jpg (file)118 KBCjkSome storm has made its mark [http://www.openstreetmap.org/?lat=59.29290000&lon=12.63350000&zoom=16&layers=B000FTF @59.2929,12.6335] Category:Meetup on 2012-07-27 Category:Meetup in 59 121
18:33, 27 July 20122012-07-27 59 12 00-33-40-527.jpg (file)111 KBCjkHappy hasher [http://www.openstreetmap.org/?lat=59.29230000&lon=12.63290000&zoom=16&layers=B000FTF @59.2923,12.6329] Category:Meetup on 2012-07-27 Category:Meetup in 59 121
18:33, 27 July 20122012-07-27 59 12 00-33-09-785.jpg (file)143 KBCjkThe route the logging machines have taken [http://www.openstreetmap.org/?lat=59.29220000&lon=12.63280000&zoom=16&layers=B000FTF @59.2922,12.6328] Category:Meetup on 2012-07-27 Category:Meetup in 59 121
18:32, 27 July 20122012-07-27 59 12 00-32-07-318.jpg (file)129 KBCjkSparse spruce trees [http://www.openstreetmap.org/?lat=59.29200000&lon=12.63290000&zoom=16&layers=B000FTF @59.2920,12.6329] Category:Meetup on 2012-07-27 Category:Meetup in 59 121
18:31, 27 July 20122012-07-27 59 12 00-31-18-918.jpg (file)101 KBCjkThe creek that fills the swamp by the car [http://www.openstreetmap.org/?lat=59.29180000&lon=12.63250000&zoom=16&layers=B000FTF @59.2918,12.6325] Category:Meetup on 2012-07-27 Category:Meetup in 59 121
18:30, 27 July 20122012-07-27 59 12 00-30-32-251.jpg (file)155 KBCjkBugger, already empty [http://www.openstreetmap.org/?lat=59.29180000&lon=12.63230000&zoom=16&layers=B000FTF @59.2918,12.6323] Category:Meetup on 2012-07-27 Category:Meetup in 59 121
18:29, 27 July 20122012-07-27 59 12 00-29-54-061.jpg (file)154 KBCjkOoo, an egg. [http://www.openstreetmap.org/?lat=59.29180000&lon=12.63230000&zoom=16&layers=B000FTF @59.2918,12.6323] Category:Meetup on 2012-07-27 Category:Meetup in 59 121
18:29, 27 July 20122012-07-27 59 12 00-29-24-179.jpg (file)107 KBCjkSecond clearing [http://www.openstreetmap.org/?lat=59.29150000&lon=12.63150000&zoom=16&layers=B000FTF @59.2915,12.6315] Category:Meetup on 2012-07-27 Category:Meetup in 59 121
18:28, 27 July 20122012-07-27 59 12 00-28-48-179.jpg (file)106 KBCjkFirst clearing on the way back [http://www.openstreetmap.org/?lat=59.29120000&lon=12.63090000&zoom=16&layers=B000FTF @59.2912,12.6309] Category:Meetup on 2012-07-27 Category:Meetup in 59 121
18:28, 27 July 20122012-07-27 59 12 00-28-04-660.jpg (file)146 KBCjkBlack slug, not the invading brown murder slug. [http://www.openstreetmap.org/?lat=59.29110000&lon=12.63060000&zoom=16&layers=B000FTF @59.2911,12.6306] Category:Meetup on 2012-07-27 Category:Meetup in 59 121
18:27, 27 July 20122012-07-27 59 12 00-27-00-415.jpg (file)156 KBCjkWet moss doesn't have the best footing.slipped and almost fell. Category:Meetup on 2012-07-27 Category:Meetup in 59 121
18:25, 27 July 20122012-07-27 59 12 00-25-25-514.jpg (file)30 KBCjkPanorama 2 Category:Meetup on 2012-07-27 Category:Meetup in 59 121
18:25, 27 July 20122012-07-27 59 12 00-25-00-971.jpg (file)33 KBCjkPanorama 1 Category:Meetup on 2012-07-27 Category:Meetup in 59 121
18:24, 27 July 20122012-07-27 59 12 00-24-23-541.jpg (file)161 KBCjkMy soaked through converse at the spot [http://www.openstreetmap.org/?lat=59.29110000&lon=12.62990000&zoom=16&layers=B000FTF @59.2911,12.6299] Category:Meetup on 2012-07-27 Category:Meetup in 59 121

First page
First page
Last page
Last page